Time;durP1;ratioP1;P1;durP2;ratioP2;P2;SDS_P1;SDS_P2;PMS_P1;PMS_P2;Temp;Humidity;BMP_temperature;BMP_pressure;BME280_temperature;BME280_humidity;BME280_pressure;Samples;Min_cycle;Max_cycle;Signal;HPM_P1;HPM_P2
2023/03/13 00:00:05;;;;;;;0.63;0.63;;;;;;;5.70;66.01;99784.38;5024444;28;20208;-65
2023/03/13 00:02:32;;;;;;;0.60;0.60;;;;;;;5.69;66.06;99786.91;5016164;28;20261;-65
2023/03/13 00:04:59;;;;;;;0.97;0.97;;;;;;;5.66;65.65;99786.91;5025431;28;20194;-65
2023/03/13 00:07:25;;;;;;;0.67;0.67;;;;;;;5.64;65.67;99794.56;5021034;28;20846;-66
2023/03/13 00:09:52;;;;;;;0.80;0.80;;;;;;;5.63;65.41;99792.00;5021265;28;20715;-65
2023/03/13 00:12:19;;;;;;;0.70;0.70;;;;;;;5.60;65.64;99787.78;5025460;28;20193;-66
2023/03/13 00:14:45;;;;;;;0.70;0.70;;;;;;;5.60;65.38;99802.19;5027844;28;20202;-64
2023/03/13 00:17:14;;;;;;;0.53;0.53;;;;;;;5.57;65.71;99803.06;5025622;28;20660;-65
2023/03/13 00:19:40;;;;;;;0.67;0.67;;;;;;;5.49;65.85;99787.00;5018558;28;20201;-65
2023/03/13 00:22:07;;;;;;;0.60;0.60;;;;;;;5.52;66.71;99798.84;5024351;28;20217;-65
2023/03/13 00:24:34;;;;;;;0.60;0.60;;;;;;;5.50;66.80;99792.91;5024903;28;20313;-65
2023/03/13 00:27:04;;;;;;;0.70;0.70;;;;;;;5.48;66.96;99797.16;5026743;28;20303;-65
2023/03/13 00:29:32;;;;;;;0.70;0.70;;;;;;;5.39;66.94;99787.03;5023919;28;20208;-65
2023/03/13 00:32:00;;;;;;;0.70;0.70;;;;;;;5.43;67.27;99798.88;5031729;28;20966;-65
2023/03/13 00:34:28;;;;;;;0.60;0.60;;;;;;;5.40;67.73;99788.69;5028094;28;20237;-65
2023/03/13 00:36:55;;;;;;;0.60;0.60;;;;;;;5.35;68.10;99790.44;5032060;28;20201;-65
2023/03/13 00:39:22;;;;;;;0.90;0.90;;;;;;;5.23;68.12;99784.50;5031837;28;20293;-65
2023/03/13 00:41:49;;;;;;;0.60;0.60;;;;;;;5.27;67.89;99793.84;5031479;28;20221;-65
2023/03/13 00:44:16;;;;;;;0.50;0.50;;;;;;;5.25;67.96;99790.47;5032740;28;20738;-65
2023/03/13 00:46:43;;;;;;;0.60;0.60;;;;;;;5.22;67.82;99793.00;5039051;28;20237;-65
2023/03/13 00:49:09;;;;;;;0.80;0.80;;;;;;;5.18;67.56;99782.84;5032453;28;20623;-64
2023/03/13 00:51:38;;;;;;;0.70;0.70;;;;;;;5.09;67.25;99793.88;5032873;28;20576;-65
2023/03/13 00:54:04;;;;;;;0.60;0.60;;;;;;;5.07;66.88;99787.94;5032439;28;20197;-65
2023/03/13 00:56:31;;;;;;;0.70;0.70;;;;;;;5.06;66.79;99787.97;5032668;28;21674;-65
2023/03/13 00:59:00;;;;;;;0.60;0.60;;;;;;;5.03;66.69;99787.97;5030200;28;20201;-65
2023/03/13 01:01:30;;;;;;;1.10;1.10;;;;;;;5.00;66.95;99781.19;5031428;28;20220;-65
2023/03/13 01:03:58;;;;;;;0.50;0.50;;;;;;;5.02;67.14;99782.03;5031369;28;20193;-65
2023/03/13 01:06:27;;;;;;;0.80;0.80;;;;;;;5.00;66.81;99777.81;5032980;28;20205;-65
2023/03/13 01:08:56;;;;;;;0.63;0.63;;;;;;;4.97;66.96;99783.75;5032706;28;20194;-65
2023/03/13 01:11:24;;;;;;;0.60;0.60;;;;;;;4.96;66.72;99783.75;5031871;28;20205;-65
2023/03/13 01:13:54;;;;;;;0.70;0.70;;;;;;;4.92;66.35;99779.50;5033395;28;20263;-65
2023/03/13 01:16:23;;;;;;;0.70;0.70;;;;;;;4.88;66.50;99782.91;5031129;28;20209;-65
2023/03/13 01:18:52;;;;;;;0.60;0.60;;;;;;;4.81;66.81;99786.31;5031575;28;20285;-65
2023/03/13 01:21:20;;;;;;;0.60;0.60;;;;;;;4.73;66.86;99783.75;5031744;28;20220;-64
2023/03/13 01:23:51;;;;;;;0.80;0.80;;;;;;;4.76;66.60;99796.47;5030792;28;20247;-65
2023/03/13 01:26:20;;;;;;;0.70;0.70;;;;;;;4.69;67.27;99787.13;5034304;28;20201;-64
2023/03/13 01:28:47;;;;;;;0.70;0.70;;;;;;;4.64;67.32;99783.78;5032174;28;20201;-65
2023/03/13 01:31:17;;;;;;;0.60;0.60;;;;;;;4.68;67.64;99793.09;5028746;28;20221;-65
2023/03/13 01:33:45;;;;;;;0.63;0.63;;;;;;;4.55;67.71;99788.84;5026964;28;20198;-65
2023/03/13 01:36:13;;;;;;;0.73;0.73;;;;;;;4.55;68.02;99794.78;5026151;28;20197;-65
2023/03/13 01:38:41;;;;;;;0.60;0.60;;;;;;;4.37;68.63;99786.28;5026814;28;20201;-65
2023/03/13 01:41:09;;;;;;;0.80;0.80;;;;;;;4.36;69.23;99797.31;5025629;28;20708;-65
2023/03/13 01:43:37;;;;;;;0.63;0.63;;;;;;;4.16;70.10;99779.50;5024100;28;20225;-64
2023/03/13 01:46:13;;;;;;;0.70;0.70;;;;;;;4.16;70.31;99804.88;5026193;28;20200;-64
2023/03/13 01:48:45;;;;;;;0.70;0.70;;;;;;;3.99;70.89;99798.91;5014253;28;20197;-64
2023/03/13 01:51:16;;;;;;;2.03;2.03;;;;;;;3.67;72.11;99781.06;5023522;28;20197;-65
2023/03/13 01:53:47;;;;;;;0.60;0.60;;;;;;;3.63;73.51;99805.56;5020364;28;20206;-64
2023/03/13 01:56:19;;;;;;;0.63;0.63;;;;;;;3.54;74.08;99807.22;5022937;28;20205;-64
2023/03/13 01:58:49;;;;;;;0.80;0.80;;;;;;;3.48;74.56;99807.19;5021688;28;20665;-64
2023/03/13 02:01:18;;;;;;;0.70;0.70;;;;;;;3.53;74.97;99810.56;5023329;28;20592;-64
2023/03/13 02:03:48;;;;;;;0.60;0.60;;;;;;;3.54;74.95;99817.34;5021217;28;20268;-65
2023/03/13 02:06:15;;;;;;;0.80;0.80;;;;;;;3.58;74.81;99821.59;5020886;28;20263;-65
2023/03/13 02:08:48;;;;;;;1.13;1.13;;;;;;;3.61;74.50;99834.28;5026375;28;20208;-64
2023/03/13 02:11:23;;;;;;;0.70;0.70;;;;;;;3.62;73.98;99835.97;5027097;28;20640;-65
2023/03/13 02:13:53;;;;;;;0.70;0.70;;;;;;;3.61;73.28;99842.75;5029876;28;20279;-65
2023/03/13 02:16:22;;;;;;;0.70;0.70;;;;;;;3.60;73.03;99850.31;5028400;28;20204;-64
2023/03/13 02:18:49;;;;;;;0.60;0.60;;;;;;;3.43;73.53;99834.19;5029657;28;20669;-64
2023/03/13 02:21:25;;;;;;;0.73;0.73;;;;;;;3.52;73.54;99852.00;5026944;28;20198;-64
2023/03/13 02:24:00;;;;;;;0.60;0.60;;;;;;;3.45;73.55;99837.59;5028657;28;20201;-64
2023/03/13 02:26:29;;;;;;;0.60;0.60;;;;;;;3.47;73.54;99846.03;5027571;28;20201;-64
2023/03/13 02:28:55;;;;;;;0.63;0.63;;;;;;;3.37;73.47;99839.22;5028694;28;20665;-64
2023/03/13 02:31:22;;;;;;;0.70;0.70;;;;;;;3.41;73.65;99861.22;5026950;28;20233;-64
2023/03/13 02:33:49;;;;;;;0.60;0.60;;;;;;;3.23;73.67;99868.72;5029016;28;20217;-64
2023/03/13 02:36:17;;;;;;;0.70;0.70;;;;;;;2.98;74.22;99838.13;5028386;28;20201;-64
2023/03/13 02:38:51;;;;;;;0.73;0.73;;;;;;;3.02;75.21;99874.44;5029218;28;20194;-64
2023/03/13 02:41:21;;;;;;;0.70;0.70;;;;;;;2.94;75.60;99879.44;5026966;28;20208;-64
2023/03/13 02:43:49;;;;;;;0.80;0.80;;;;;;;2.74;76.17;99895.31;5027973;28;20197;-64
2023/03/13 02:46:19;;;;;;;0.67;0.67;;;;;;;2.72;76.03;99887.69;5020904;28;20205;-64
2023/03/13 02:48:48;;;;;;;0.87;0.87;;;;;;;2.73;76.16;99898.69;5028350;28;20251;-64
2023/03/13 02:51:22;;;;;;;0.83;0.83;;;;;;;2.77;76.16;99905.47;5024028;28;20686;-64
2023/03/13 02:53:50;;;;;;;0.70;0.70;;;;;;;2.67;76.23;99894.41;5023909;28;20201;-64
2023/03/13 02:56:20;;;;;;;0.77;0.77;;;;;;;2.65;77.02;99906.19;5025471;28;20205;-64
2023/03/13 02:58:47;;;;;;;0.70;0.70;;;;;;;2.65;76.98;99898.59;5025313;28;20197;-64
2023/03/13 03:01:15;;;;;;;0.60;0.60;;;;;;;2.65;76.98;99886.78;5026682;28;20680;-64
2023/03/13 03:03:41;;;;;;;0.80;0.80;;;;;;;2.71;77.04;99895.31;5023202;28;20221;-64
2023/03/13 03:06:08;;;;;;;0.80;0.80;;;;;;;2.77;77.15;99900.41;5024142;28;20573;-63
2023/03/13 03:08:35;;;;;;;0.60;0.60;;;;;;;2.74;76.73;99911.38;5027249;28;20626;-64
2023/03/13 03:11:02;;;;;;;0.60;0.60;;;;;;;2.78;76.58;99902.94;5024751;28;20216;-64
2023/03/13 03:13:29;;;;;;;0.70;0.70;;;;;;;2.77;76.29;99906.34;5022502;28;20229;-64
2023/03/13 03:15:56;;;;;;;0.70;0.70;;;;;;;2.74;76.04;99901.25;5025881;28;20201;-64
2023/03/13 03:18:24;;;;;;;0.80;0.80;;;;;;;2.79;76.21;99913.91;5026780;28;20198;-64
2023/03/13 03:20:51;;;;;;;0.60;0.60;;;;;;;2.82;76.09;99919.88;5028256;28;20197;-64
2023/03/13 03:23:17;;;;;;;0.70;0.70;;;;;;;2.77;75.98;99919.00;5025616;28;20221;-65
2023/03/13 03:25:44;;;;;;;0.70;0.70;;;;;;;2.85;75.37;99932.56;5026695;28;20588;-64
2023/03/13 03:28:11;;;;;;;0.60;0.60;;;;;;;2.84;75.50;99938.47;5025774;28;20255;-64
2023/03/13 03:30:38;;;;;;;0.73;0.73;;;;;;;2.82;75.26;99940.13;5026320;28;20337;-64
2023/03/13 03:33:04;;;;;;;0.67;0.67;;;;;;;2.74;75.68;99923.16;5026645;28;20661;-64
2023/03/13 03:35:37;;;;;;;0.80;0.80;;;;;;;2.77;75.69;99935.84;5028045;28;20201;-64
2023/03/13 03:38:04;;;;;;;0.80;0.80;;;;;;;2.80;76.07;99948.53;5026403;28;20199;-64
2023/03/13 03:40:30;;;;;;;0.70;0.70;;;;;;;2.80;76.26;99946.00;5025892;28;20209;-64
2023/03/13 03:42:57;;;;;;;0.80;0.80;;;;;;;2.76;76.29;99947.66;5027289;28;20228;-64
2023/03/13 03:45:24;;;;;;;0.70;0.70;;;;;;;2.71;77.01;99951.84;5024005;28;20205;-64
2023/03/13 03:47:51;;;;;;;0.60;0.60;;;;;;;2.63;76.97;99954.28;5027061;28;20202;-64
2023/03/13 03:50:18;;;;;;;0.87;0.87;;;;;;;2.61;77.05;99955.09;5024152;28;20267;-64
2023/03/13 03:52:46;;;;;;;0.73;0.73;;;;;;;2.56;77.29;99964.31;5024746;28;20197;-64
2023/03/13 03:55:13;;;;;;;0.80;0.80;;;;;;;2.51;77.42;99968.50;5023564;28;20263;-64
2023/03/13 03:57:39;;;;;;;0.70;0.70;;;;;;;2.45;77.63;99973.50;5016441;28;20648;-64
2023/03/13 04:00:09;;;;;;;0.80;0.80;;;;;;;2.33;78.20;99973.31;5024210;28;20205;-64
2023/03/13 04:02:36;;;;;;;0.70;0.70;;;;;;;2.19;78.94;99964.72;5019247;28;20779;-64
2023/03/13 04:05:03;;;;;;;0.80;0.80;;;;;;;2.23;79.45;99981.66;5022672;28;20673;-64
2023/03/13 04:07:30;;;;;;;0.70;0.70;;;;;;;2.20;79.60;99981.63;5018530;28;20874;-64
2023/03/13 04:09:58;;;;;;;0.83;0.83;;;;;;;2.20;80.00;99981.63;5023851;28;20220;-64
2023/03/13 04:12:25;;;;;;;0.60;0.60;;;;;;;2.22;79.73;99985.00;5022049;28;20226;-64
2023/03/13 04:14:52;;;;;;;0.70;0.70;;;;;;;2.25;79.77;99985.03;5028156;28;20201;-64
2023/03/13 04:17:19;;;;;;;0.80;0.80;;;;;;;2.28;79.43;99988.47;5025029;28;20201;-64
2023/03/13 04:19:46;;;;;;;0.70;0.70;;;;;;;2.34;79.68;99990.22;5027125;28;20212;-64
2023/03/13 04:22:12;;;;;;;0.73;0.73;;;;;;;2.33;79.14;99993.56;5023371;28;20291;-64
2023/03/13 04:24:39;;;;;;;1.27;1.27;;;;;;;2.35;79.08;100002.88;5022031;28;20235;-64
2023/03/13 04:27:07;;;;;;;0.60;0.60;;;;;;;2.24;78.89;99978.28;5022650;28;20209;-64
2023/03/13 04:29:34;;;;;;;0.70;0.70;;;;;;;2.32;78.89;100002.84;5024891;28;20194;-64
2023/03/13 04:32:01;;;;;;;0.70;0.70;;;;;;;2.24;78.94;100003.56;5026651;28;20225;-64
2023/03/13 04:34:28;;;;;;;0.70;0.70;;;;;;;2.29;79.24;100027.25;5027721;28;20209;-64
2023/03/13 04:36:55;;;;;;;0.60;0.60;;;;;;;2.23;79.46;100020.41;5027885;28;20550;-64
2023/03/13 04:39:24;;;;;;;0.83;0.83;;;;;;;2.29;79.51;100037.38;5031553;28;20263;-64
2023/03/13 04:41:51;;;;;;;0.70;0.70;;;;;;;2.23;79.36;100039.81;5025431;28;20640;-64
2023/03/13 04:44:20;;;;;;;0.63;0.63;;;;;;;2.19;79.51;100036.41;5030262;28;20201;-64
2023/03/13 04:46:47;;;;;;;0.70;0.70;;;;;;;2.25;79.71;100043.22;5031492;28;20193;-64
2023/03/13 04:49:14;;;;;;;0.70;0.70;;;;;;;2.25;79.67;100040.69;5028570;28;20200;-64
2023/03/13 04:51:41;;;;;;;0.70;0.70;;;;;;;2.24;79.57;100049.94;5028358;28;20200;-64
2023/03/13 04:54:08;;;;;;;0.83;0.83;;;;;;;2.17;79.56;100052.38;5029022;28;20259;-64
2023/03/13 04:56:35;;;;;;;0.70;0.70;;;;;;;1.91;79.47;100019.97;5028265;28;20279;-64
2023/03/13 04:59:02;;;;;;;0.90;0.90;;;;;;;2.05;79.22;100042.94;5030456;28;21473;-64
2023/03/13 05:01:31;;;;;;;0.80;0.80;;;;;;;2.05;79.07;100058.13;5025200;28;20213;-64
2023/03/13 05:03:58;;;;;;;0.70;0.70;;;;;;;1.97;79.20;100070.63;5026178;28;20577;-64
2023/03/13 05:06:24;;;;;;;0.63;0.63;;;;;;;1.91;79.11;100072.22;5024884;28;20212;-64
2023/03/13 05:08:51;;;;;;;0.70;0.70;;;;;;;1.66;79.45;100047.41;5032365;28;20213;-64
2023/03/13 05:11:18;;;;;;;0.70;0.70;;;;;;;1.82;79.65;100080.53;5043924;28;20272;-64
2023/03/13 05:13:44;;;;;;;0.77;0.77;;;;;;;1.79;79.94;100077.94;5027534;28;20255;-64
2023/03/13 05:16:11;;;;;;;0.60;0.60;;;;;;;1.77;80.28;100087.19;5028175;28;20259;-64
2023/03/13 05:18:39;;;;;;;0.60;0.60;;;;;;;1.78;80.89;100083.00;5031531;28;20213;-64
2023/03/13 05:21:07;;;;;;;0.70;0.70;;;;;;;1.79;81.05;100080.47;5027932;28;20696;-64
2023/03/13 05:23:34;;;;;;;0.70;0.70;;;;;;;1.83;81.31;100079.72;5030750;28;20214;-64
2023/03/13 05:26:01;;;;;;;0.90;0.90;;;;;;;1.85;81.61;100085.63;5034817;28;20208;-64
2023/03/13 05:28:27;;;;;;;0.90;0.90;;;;;;;1.91;81.72;100083.19;5031343;28;20209;-63
2023/03/13 05:30:54;;;;;;;0.80;0.80;;;;;;;1.97;81.77;100090.84;5030847;28;20236;-64
2023/03/13 05:33:21;;;;;;;0.70;0.70;;;;;;;1.98;81.82;100097.63;5033813;28;20197;-64
2023/03/13 05:35:49;;;;;;;0.77;0.77;;;;;;;2.03;82.20;100097.72;5032248;28;20661;-64
2023/03/13 05:38:16;;;;;;;0.80;0.80;;;;;;;2.11;82.73;100107.09;5031567;28;20255;-64
2023/03/13 05:40:43;;;;;;;0.70;0.70;;;;;;;2.18;82.87;100104.66;5028469;28;20574;-64
2023/03/13 05:43:10;;;;;;;1.00;1.00;;;;;;;2.31;82.77;100104.00;5030284;28;20214;-64
2023/03/13 05:45:36;;;;;;;0.70;0.70;;;;;;;2.48;82.90;100105.09;5032318;28;20217;-63
2023/03/13 05:48:03;;;;;;;0.80;0.80;;;;;;;2.69;82.99;100110.44;5030573;28;20269;-63
2023/03/13 05:50:30;;;;;;;0.70;0.70;;;;;;;2.95;82.18;100109.06;5029873;28;20198;-63
2023/03/13 05:52:58;;;;;;;0.70;0.70;;;;;;;3.21;81.34;100111.03;5030626;28;20260;-63
2023/03/13 05:55:25;;;;;;;0.60;0.60;;;;;;;3.36;80.76;100116.28;5032256;28;20201;-63
2023/03/13 05:57:52;;;;;;;0.70;0.70;;;;;;;3.53;80.42;100119.81;5028852;28;20288;-63
2023/03/13 06:00:19;;;;;;;0.63;0.63;;;;;;;3.68;79.45;100110.66;5030760;28;20293;-59
2023/03/13 06:02:46;;;;;;;0.60;0.60;;;;;;;3.81;78.37;100123.47;5032856;28;20220;-65
2023/03/13 06:05:13;;;;;;;0.60;0.60;;;;;;;3.99;77.85;100121.91;5035872;28;20201;-66
2023/03/13 06:07:40;;;;;;;0.73;0.73;;;;;;;4.10;77.33;100129.63;5040522;28;20660;-65
2023/03/13 06:10:09;;;;;;;0.60;0.60;;;;;;;4.23;76.43;100126.34;5042417;28;20904;-64
2023/03/13 06:12:36;;;;;;;0.70;0.70;;;;;;;4.38;76.16;100135.72;5030951;28;20784;-64
2023/03/13 06:15:05;;;;;;;0.53;0.53;;;;;;;4.58;75.95;100140.09;5028497;28;20209;-65
2023/03/13 06:17:32;;;;;;;0.60;0.60;;;;;;;4.75;74.47;100135.06;5036213;28;20197;-64
2023/03/13 06:19:58;;;;;;;0.80;0.80;;;;;;;4.84;73.98;100145.31;5028914;28;20221;-64
2023/03/13 06:22:25;;;;;;;0.60;0.60;;;;;;;4.90;72.53;100147.88;5031230;28;20210;-63
2023/03/13 06:24:52;;;;;;;0.60;0.60;;;;;;;4.94;72.49;100143.66;5034112;28;20201;-63
2023/03/13 06:27:20;;;;;;;0.60;0.60;;;;;;;5.00;73.46;100144.53;5035057;28;20197;-63
2023/03/13 06:29:47;;;;;;;0.60;0.60;;;;;;;5.06;74.12;100139.47;5037127;28;20570;-62
2023/03/13 06:32:14;;;;;;;0.53;0.53;;;;;;;5.17;74.48;100150.50;5029604;28;20209;-63
2023/03/13 06:34:40;;;;;;;0.60;0.60;;;;;;;5.34;73.47;100147.16;5021719;28;20205;-64
2023/03/13 06:37:07;;;;;;;0.53;0.53;;;;;;;5.43;72.66;100144.69;5034147;28;20197;-63
2023/03/13 06:39:34;;;;;;;0.50;0.50;;;;;;;5.48;72.66;100148.06;5036497;28;20260;-63
2023/03/13 06:42:01;;;;;;;0.50;0.50;;;;;;;5.57;72.83;100150.63;5035996;28;20200;-63
2023/03/13 06:44:29;;;;;;;0.60;0.60;;;;;;;5.64;72.14;100149.78;5034447;28;20218;-65
2023/03/13 06:46:56;;;;;;;0.67;0.67;;;;;;;5.67;71.41;100150.66;5034246;28;20204;-65
2023/03/13 06:49:22;;;;;;;0.80;0.80;;;;;;;5.70;72.00;100149.78;5034626;28;20572;-65
2023/03/13 06:51:49;;;;;;;0.70;0.70;;;;;;;5.83;72.34;100151.50;5031310;28;20209;-65
2023/03/13 06:54:16;;;;;;;0.80;0.80;;;;;;;5.95;71.09;100154.09;5031549;28;20204;-65
2023/03/13 06:56:43;;;;;;;0.67;0.67;;;;;;;6.08;71.42;100153.25;5038969;28;20201;-65
2023/03/13 06:59:09;;;;;;;0.70;0.70;;;;;;;6.21;70.87;100154.94;5032022;28;20197;-66
2023/03/13 07:01:37;;;;;;;0.50;0.50;;;;;;;6.34;70.67;100148.13;5035949;28;20205;-65
2023/03/13 07:04:04;;;;;;;0.70;0.70;;;;;;;6.45;69.54;100150.66;5028216;28;20251;-66
2023/03/13 07:06:31;;;;;;;0.70;0.70;;;;;;;6.49;70.66;100150.69;5034696;28;20204;-64
2023/03/13 07:08:58;;;;;;;0.70;0.70;;;;;;;6.63;69.91;100148.06;5030669;28;20259;-64
2023/03/13 07:11:24;;;;;;;2.20;1.17;;;;;;;6.74;70.20;100142.13;5028484;28;20201;-63
2023/03/13 07:13:55;;;;;;;0.77;0.77;;;;;;;6.93;69.65;100127.59;5031450;28;20197;-64
2023/03/13 07:16:21;;;;;;;0.60;0.60;;;;;;;7.15;68.59;100144.50;5032348;28;20218;-64
2023/03/13 07:18:51;;;;;;;0.67;0.67;;;;;;;7.23;68.05;100142.78;5031248;28;20209;-64
2023/03/13 07:21:17;;;;;;;0.77;0.77;;;;;;;7.47;67.88;100146.03;5032615;28;20201;-64
2023/03/13 07:23:45;;;;;;;0.60;0.60;;;;;;;7.68;65.72;100145.91;5042795;28;20213;-64
2023/03/13 07:26:14;;;;;;;0.50;0.50;;;;;;;7.85;65.60;100151.75;5042002;28;20231;-64
2023/03/13 07:28:41;;;;;;;0.90;0.90;;;;;;;8.04;64.51;100155.88;5034321;28;20680;-64
2023/03/13 07:31:10;;;;;;;1.07;1.07;;;;;;;8.19;63.23;100155.75;5034029;28;20224;-65
2023/03/13 07:33:37;;;;;;;0.63;0.63;;;;;;;8.32;62.62;100154.81;5030866;28;20641;-65
2023/03/13 07:36:06;;;;;;;0.60;0.60;;;;;;;8.41;61.81;100147.03;5029837;28;20676;-64
2023/03/13 07:38:33;;;;;;;0.43;0.43;;;;;;;8.65;62.51;100145.13;5030977;28;20647;-64
2023/03/13 07:41:00;;;;;;;0.50;0.50;;;;;;;8.84;61.83;100150.00;5033549;28;20202;-64
2023/03/13 07:43:28;;;;;;;0.40;0.40;;;;;;;9.06;62.17;100153.16;5032239;28;20694;-65
2023/03/13 07:45:56;;;;;;;0.97;0.97;;;;;;;9.30;61.72;100152.88;5031047;28;20230;-64
2023/03/13 07:48:24;;;;;;;0.60;0.60;;;;;;;9.44;59.74;100161.19;5034834;28;20208;-64
2023/03/13 07:50:51;;;;;;;0.60;0.60;;;;;;;9.71;60.14;100154.00;5040059;28;20585;-64
2023/03/13 07:53:20;;;;;;;0.70;0.70;;;;;;;9.83;59.11;100151.25;5026683;28;20678;-64
2023/03/13 07:55:58;;;;;;;0.57;0.57;;;;;;;9.87;56.80;100135.81;5029560;28;20736;-64
2023/03/13 07:58:26;;;;;;;0.83;0.83;;;;;;;10.12;57.96;100154.19;5024933;28;20279;-65
2023/03/13 08:00:53;;;;;;;0.57;0.57;;;;;;;10.30;56.96;100151.38;5030876;28;20205;-61
2023/03/13 08:03:20;;;;;;;0.70;0.70;;;;;;;10.36;56.28;100135.91;5029075;28;20681;-65
2023/03/13 08:05:46;;;;;;;0.47;0.47;;;;;;;10.60;55.62;100138.91;5032074;28;20255;-64
2023/03/13 08:08:13;;;;;;;0.70;0.70;;;;;;;10.71;56.85;100131.84;5033067;28;20242;-65
2023/03/13 08:10:41;;;;;;;0.50;0.50;;;;;;;10.77;55.73;100126.56;5030688;28;20293;-65
2023/03/13 08:13:08;;;;;;;0.60;0.60;;;;;;;10.88;54.21;100127.22;5031488;28;20620;-65
2023/03/13 08:15:35;;;;;;;0.50;0.50;;;;;;;10.97;55.92;100116.78;5031596;28;20569;-66
2023/03/13 08:18:02;;;;;;;0.43;0.43;;;;;;;11.17;54.44;100113.81;5028129;28;20201;-65
2023/03/13 08:20:28;;;;;;;0.40;0.40;;;;;;;11.35;52.93;100109.09;5033126;28;20263;-67
2023/03/13 08:22:57;;;;;;;0.40;0.40;;;;;;;11.33;52.24;100113.44;5029533;28;20645;-64
2023/03/13 08:25:24;;;;;;;0.47;0.47;;;;;;;11.50;54.16;100110.50;5029590;28;20275;-65
2023/03/13 08:27:52;;;;;;;0.70;0.70;;;;;;;11.54;50.87;100105.25;5036051;28;21055;-65
2023/03/13 08:30:19;;;;;;;0.50;0.50;;;;;;;11.67;52.33;100108.38;5031444;28;20277;-65
2023/03/13 08:32:46;;;;;;;0.40;0.40;;;;;;;11.82;52.33;100107.22;5027226;28;20300;-65
2023/03/13 08:35:12;;;;;;;0.60;0.60;;;;;;;12.02;49.33;100104.97;5030075;28;20204;-65
2023/03/13 08:37:39;;;;;;;0.47;0.47;;;;;;;12.24;49.97;100111.31;5034834;28;20201;-65
2023/03/13 08:40:10;;;;;;;0.50;0.50;;;;;;;12.34;48.54;100112.72;5030833;28;20665;-65
2023/03/13 08:42:39;;;;;;;0.50;0.50;;;;;;;12.49;50.29;100111.50;5030696;28;20292;-65
2023/03/13 08:45:08;;;;;;;0.70;0.70;;;;;;;12.66;49.39;100118.75;5032877;28;20213;-65
2023/03/13 08:47:35;;;;;;;0.60;0.60;;;;;;;12.59;47.50;100124.06;5033031;28;20295;-66
2023/03/13 08:50:02;;;;;;;0.70;0.70;;;;;;;12.64;49.91;100106.78;5035751;28;20262;-65
2023/03/13 08:52:29;;;;;;;0.60;0.60;;;;;;;12.88;47.37;100119.84;5025764;28;20213;-65
2023/03/13 08:54:56;;;;;;;0.50;0.50;;;;;;;13.13;45.81;100121.72;5028725;28;20201;-66
2023/03/13 08:57:23;;;;;;;0.50;0.50;;;;;;;13.27;44.83;100123.06;5033743;28;20201;-66
2023/03/13 08:59:51;;;;;;;0.50;0.50;;;;;;;13.42;43.40;100127.72;5035219;28;20201;-66
2023/03/13 09:02:19;;;;;;;0.50;0.50;;;;;;;13.46;44.18;100125.03;5033510;28;20198;-66
2023/03/13 09:04:49;;;;;;;0.60;0.60;;;;;;;13.41;42.68;100116.59;5028908;28;20221;-66
2023/03/13 09:07:16;;;;;;;0.80;0.80;;;;;;;13.53;43.11;100125.69;5036404;28;20194;-66
2023/03/13 09:09:43;;;;;;;0.40;0.40;;;;;;;13.66;41.52;100122.69;5034873;28;20344;-67
2023/03/13 09:12:11;;;;;;;0.47;0.47;;;;;;;13.74;40.64;100119.00;5032638;28;20311;-66
2023/03/13 09:14:38;;;;;;;0.50;0.50;;;;;;;13.83;42.29;100111.00;5035367;28;20197;-66
2023/03/13 09:17:05;;;;;;;0.47;0.47;;;;;;;13.91;41.85;100116.75;5030064;28;20231;-66
2023/03/13 09:19:33;;;;;;;0.57;0.57;;;;;;;13.92;43.39;100108.13;5031791;28;20207;-66
2023/03/13 09:22:00;;;;;;;0.60;0.60;;;;;;;14.05;41.84;100110.25;5035974;28;20193;-67
2023/03/13 09:24:27;;;;;;;1.07;1.07;;;;;;;13.73;40.26;100107.03;5036404;28;20268;-67
2023/03/13 09:26:54;;;;;;;0.50;0.50;;;;;;;13.90;42.76;100107.31;5040775;28;20217;-67
2023/03/13 09:29:21;;;;;;;0.50;0.50;;;;;;;13.99;41.08;100104.47;5027990;28;20596;-67
2023/03/13 09:31:48;;;;;;;0.50;0.50;;;;;;;14.10;40.68;100097.19;5033227;28;20232;-67
2023/03/13 09:34:14;;;;;;;0.47;0.47;;;;;;;13.96;40.54;100099.38;5035980;28;20208;-67
2023/03/13 09:36:43;;;;;;;0.40;0.40;;;;;;;13.89;37.95;100103.06;5035822;28;20203;-66
2023/03/13 09:39:09;;;;;;;0.50;0.50;;;;;;;13.81;39.11;100099.88;5035172;28;20204;-66
2023/03/13 09:41:40;;;;;;;0.47;0.47;;;;;;;14.05;40.86;100093.94;5029817;28;20209;-67
2023/03/13 09:44:19;;;;;;;0.60;0.60;;;;;;;13.79;40.16;100087.06;5027654;28;20648;-66
2023/03/13 09:46:56;;;;;;;0.40;0.40;;;;;;;13.72;38.70;100084.72;5022078;28;20288;-67
2023/03/13 09:49:30;;;;;;;0.60;0.60;;;;;;;13.80;39.60;100085.31;5027940;28;20203;-67
2023/03/13 09:52:05;;;;;;;0.50;0.50;;;;;;;13.73;38.91;100076.97;5029667;28;20215;-65
2023/03/13 09:54:38;;;;;;;0.50;0.50;;;;;;;13.51;39.25;100076.78;5027958;28;20547;-67
2023/03/13 09:57:12;;;;;;;0.60;0.60;;;;;;;13.88;41.65;100067.88;5030397;28;20651;-66
2023/03/13 09:59:47;;;;;;;0.50;0.50;;;;;;;14.02;39.05;100065.69;5033860;28;20260;-67
2023/03/13 10:02:22;;;;;;;0.50;0.50;;;;;;;13.74;38.41;100073.47;5033448;28;20207;-67
2023/03/13 10:04:53;;;;;;;0.40;0.40;;;;;;;13.87;38.59;100064.44;5033514;28;20216;-67
2023/03/13 10:07:21;;;;;;;0.50;0.50;;;;;;;13.58;39.55;100067.13;5037978;28;20264;-67
2023/03/13 10:09:48;;;;;;;0.40;0.40;;;;;;;13.64;39.66;100070.34;5034381;28;20202;-66
2023/03/13 10:12:19;;;;;;;0.50;0.50;;;;;;;13.74;39.27;100062.31;5033208;28;20200;-67
2023/03/13 10:14:54;;;;;;;0.50;0.50;;;;;;;13.79;38.64;100063.03;5032666;28;20279;-67
2023/03/13 10:17:34;;;;;;;0.47;0.47;;;;;;;13.53;39.01;100066.44;5033302;28;20211;-65
2023/03/13 10:20:09;;;;;;;0.50;0.50;;;;;;;13.67;39.55;100059.94;5030514;28;20212;-67
2023/03/13 10:22:39;;;;;;;0.50;0.50;;;;;;;13.79;38.88;100050.16;5035889;28;20202;-66
2023/03/13 10:25:11;;;;;;;0.50;0.50;;;;;;;13.98;38.68;100046.91;5034091;28;20747;-67
2023/03/13 10:27:49;;;;;;;0.60;0.60;;;;;;;14.01;38.97;100051.13;5036084;28;20199;-67
2023/03/13 10:30:24;;;;;;;0.40;0.40;;;;;;;14.05;37.14;100044.97;5028904;28;20224;-67
2023/03/13 10:32:54;;;;;;;0.60;0.60;;;;;;;13.98;38.60;100043.47;5029142;28;20215;-67
2023/03/13 10:35:23;;;;;;;0.50;0.50;;;;;;;13.85;35.56;100044.78;5020682;28;20201;-67
2023/03/13 10:38:03;;;;;;;0.70;0.70;;;;;;;14.01;33.97;100045.97;5024082;28;20195;-67
2023/03/13 10:40:30;;;;;;;0.40;0.40;;;;;;;14.11;34.38;100043.03;5021791;28;20565;-66
2023/03/13 10:43:02;;;;;;;0.60;0.60;;;;;;;13.98;35.17;100038.31;5025434;28;20204;-66
2023/03/13 10:45:34;;;;;;;0.50;0.50;;;;;;;13.69;35.23;100034.16;5026070;28;20282;-65
2023/03/13 10:48:04;;;;;;;0.53;0.53;;;;;;;13.67;36.00;100020.44;5019890;28;20203;-68
2023/03/13 10:50:35;;;;;;;0.57;0.57;;;;;;;13.85;35.84;100019.84;5026853;28;20628;-67
2023/03/13 10:53:21;;;;;;;0.80;0.80;;;;;;;14.03;34.54;100018.38;5025739;28;20636;-67
2023/03/13 10:55:48;;;;;;;0.70;0.70;;;;;;;13.88;34.33;100003.44;5017019;28;20204;-67
2023/03/13 10:58:20;;;;;;;1.10;1.10;;;;;;;14.06;34.10;100008.81;5021901;28;20196;-67
2023/03/13 11:00:48;;;;;;;0.70;0.70;;;;;;;13.92;32.53;100000.72;5020842;28;20306;-67
2023/03/13 11:03:18;;;;;;;0.43;0.43;;;;;;;14.01;33.82;100004.72;5021597;28;20209;-68
2023/03/13 11:05:53;;;;;;;0.50;0.50;;;;;;;14.19;34.67;100004.06;5026482;28;20275;-68
2023/03/13 11:08:24;;;;;;;0.60;0.60;;;;;;;14.22;29.33;99997.97;5022742;28;20246;-67
2023/03/13 11:10:55;;;;;;;0.60;0.60;;;;;;;14.20;28.41;99998.00;5025459;28;20197;-68
2023/03/13 11:13:37;;;;;;;0.70;0.70;;;;;;;14.27;30.49;99981.44;5021235;28;20245;-68
2023/03/13 11:16:19;;;;;;;0.50;0.50;;;;;;;14.24;28.56;99981.53;5016056;28;20200;-68
2023/03/13 11:19:13;;;;;;;0.50;0.50;;;;;;;14.31;30.08;99977.84;5014379;28;20729;-67
2023/03/13 11:21:52;;;;;;;0.50;0.50;;;;;;;14.46;29.53;99987.63;5011387;28;20211;-68
2023/03/13 11:24:28;;;;;;;0.40;0.40;;;;;;;14.31;29.46;99962.38;5021371;28;20208;-67
2023/03/13 11:27:03;;;;;;;0.60;0.60;;;;;;;14.48;28.81;99970.34;5022524;28;20279;-67
2023/03/13 11:29:39;;;;;;;0.30;0.30;;;;;;;14.62;29.68;99970.69;5021620;28;20445;-61
2023/03/13 11:32:17;;;;;;;0.60;0.60;;;;;;;14.80;30.15;99968.31;5033366;28;20297;-61
2023/03/13 11:34:48;;;;;;;0.57;0.57;;;;;;;14.52;29.55;99965.91;5047696;28;20203;-60
2023/03/13 11:37:18;;;;;;;0.60;0.60;;;;;;;14.58;29.31;99966.53;5035207;28;20677;-60
2023/03/13 11:39:59;;;;;;;0.60;0.60;;;;;;;14.63;30.07;99967.22;5037468;28;20700;-61